Portada
METAR-TAF:

METAR-TAF

Aeroports :

Darwin, Austràlia

latitud: 12-24S, longitud: 130-52E, altitud: 31 m

Observació

L'informe es va fer fa 34 minuts, a les 21:00 UTC
Vent 4 kt del Est
Temperatura 27°C
Humitat 89%
Pressió 1008 hPa
Visibilitat 10 km o més
Escasses núvols a una alçada de 1500 ft
Núvols disperses a una alçada de 36000 ft

METAR: YPDN 112100Z 08004KT 9999 FEW015 SCT360 27/25 Q1008

Hora: 07:04 (21:34 UTC)

Pronòstic

L'informe es va fer fa 4 hores i 28 minuts, a les 17:06 UTC
Pronòstic vàlid del 11 a les 18 UTC al 13 a les 00 UTC
Vent 8 kt del Nord-Oest
Visibilitat 10 km o més
Núvols disperses a una alçada de 2500 ft
Probabilitat 30% :
Temporalment
l' 12 a les 05 UTC al 12 a les 10 UTC
Vent 25 kt amb direcció variable amb ràfegues de 45 kt
Visibilitat: 1000 m
Cel ennuvolat a una alçada de 1000 ft
Núvols disperses a una alçada de 2000 ft, Cumulonimbus.
tempesta, pluja

TAF: YPDN 111706Z 1118/1300 31008KT 9999 SCT025 PROB30 TEMPO 1205/1210 VRB25G45KT 1000 TSRA BKN010 SCT020CB

Observacions i pronòstics meteorològics de més de 4000 aeroports (METAR i TAF).

Les estacions disponibles són els punts grocs i vermells al mapa.

Posi el ratolí al punt desitjat per veure el nom de l'estació.

Feu clic per veure les observacions i els pronòstics meteorològics.

Per canviar el mapa: feu clic els botons verds amb una creu de color negre per apropar; al botó verd amb un guió per allunyar la imatge; o en les fletxes verdes per a mapes adjacents.


METAR-TAF: